createdAt,value
2022-12-04T00:00:27.666Z,101.40
2022-12-04T00:05:30.234Z,112.95
2022-12-04T00:10:32.877Z,113.05
2022-12-04T00:15:35.371Z,100.82
2022-12-04T00:20:41.565Z,88.05
2022-12-04T00:25:48.646Z,100.43
2022-12-04T00:30:51.210Z,106.30
2022-12-04T00:36:01.871Z,106.28
2022-12-04T00:41:05.129Z,93.30
2022-12-04T00:46:07.679Z,112.25
2022-12-04T00:51:13.258Z,111.82
2022-12-04T00:56:25.105Z,86.10
2022-12-04T01:01:28.643Z,82.18
2022-12-04T01:06:33.457Z,107.05
2022-12-04T01:11:36.914Z,116.70
2022-12-04T01:16:40.241Z,100.85
2022-12-04T01:21:43.269Z,101.20
2022-12-04T01:26:45.839Z,86.45
2022-12-04T01:31:48.619Z,117.07
2022-12-04T01:36:51.988Z,119.63
2022-12-04T01:41:54.621Z,114.47
2022-12-04T01:46:58.985Z,107.60
2022-12-04T01:52:07.049Z,113.05
2022-12-04T01:57:19.792Z,96.13
2022-12-04T02:02:30.566Z,118.32
2022-12-04T02:07:33.502Z,117.47
2022-12-04T02:12:48.041Z,93.88
2022-12-04T02:18:27.467Z,105.95
2022-12-04T02:23:46.869Z,94.40
2022-12-04T02:28:53.727Z,115.03
2022-12-04T02:34:01.853Z,109.45
2022-12-04T02:39:05.572Z,114.68
2022-12-04T02:44:22.365Z,101.38
2022-12-04T02:49:46.696Z,107.05
2022-12-04T02:54:57.445Z,96.20
2022-12-04T03:00:01.186Z,114.53
2022-12-04T03:05:16.200Z,112.22
2022-12-04T03:10:28.693Z,115.60
2022-12-04T03:15:58.221Z,117.78
2022-12-04T03:21:04.282Z,87.82
2022-12-04T03:26:30.475Z,90.65
2022-12-04T03:31:43.217Z,119.82
2022-12-04T03:37:02.785Z,112.80
2022-12-04T03:42:11.325Z,118.55
2022-12-04T03:47:17.742Z,113.15
2022-12-04T03:52:26.137Z,120.35
2022-12-04T03:57:31.527Z,110.38
2022-12-04T04:02:38.236Z,123.53
2022-12-04T04:07:46.831Z,132.63
2022-12-04T04:13:17.554Z,101.35
2022-12-04T04:18:39.031Z,116.80
2022-12-04T04:24:07.568Z,124.03
2022-12-04T04:29:10.740Z,102.25
2022-12-04T04:34:27.789Z,110.90
2022-12-04T04:39:53.768Z,102.85
2022-12-04T04:45:00.412Z,108.05
2022-12-04T04:50:05.647Z,94.38
2022-12-04T04:55:08.817Z,122.95
2022-12-04T05:00:16.770Z,117.40
2022-12-04T05:05:19.367Z,137.90
2022-12-04T05:10:21.855Z,110.32
2022-12-04T05:15:24.313Z,81.20
2022-12-04T05:20:26.912Z,96.40
2022-12-04T05:25:29.386Z,115.25
2022-12-04T05:30:32.104Z,121.97
2022-12-04T05:35:34.634Z,112.97
2022-12-04T05:40:37.143Z,124.00
2022-12-04T05:45:39.657Z,106.00
2022-12-04T05:50:42.242Z,119.03
2022-12-04T05:55:44.750Z,122.22
2022-12-04T06:00:47.361Z,83.75
2022-12-04T06:05:49.821Z,114.25
2022-12-04T06:10:52.303Z,127.63
2022-12-04T06:15:54.854Z,122.57
2022-12-04T06:20:58.810Z,120.53
2022-12-04T06:26:08.803Z,114.20
2022-12-04T06:31:13.514Z,100.75
2022-12-04T06:36:18.911Z,115.60
2022-12-04T06:41:22.146Z,116.68
2022-12-04T06:46:27.207Z,116.95
2022-12-04T06:51:35.408Z,121.18
2022-12-04T06:56:37.920Z,126.75
2022-12-04T07:01:40.534Z,113.68
2022-12-04T07:06:43.143Z,114.43
2022-12-04T07:11:46.026Z,104.90
2022-12-04T07:16:48.586Z,128.75
2022-12-04T07:21:51.142Z,125.40
2022-12-04T07:26:53.651Z,121.55
2022-12-04T07:31:56.324Z,111.95
2022-12-04T07:36:58.974Z,120.95
2022-12-04T07:42:01.573Z,125.75
2022-12-04T07:47:04.714Z,115.30
2022-12-04T07:52:07.794Z,121.13
2022-12-04T07:57:10.249Z,117.68
2022-12-04T08:02:13.747Z,132.90
2022-12-04T08:07:16.250Z,137.25
2022-12-04T08:12:18.973Z,121.47
2022-12-04T08:17:21.544Z,118.70
2022-12-04T08:22:25.397Z,117.78
2022-12-04T08:27:28.107Z,88.90
2022-12-04T08:32:30.616Z,96.40
2022-12-04T08:37:33.141Z,88.35
2022-12-04T08:42:35.682Z,118.78
2022-12-04T08:47:38.185Z,125.18
2022-12-04T08:52:40.812Z,83.68
2022-12-04T08:57:43.312Z,125.38
2022-12-04T09:02:49.660Z,128.05
2022-12-04T09:07:52.206Z,110.07
2022-12-04T09:12:54.770Z,115.80
2022-12-04T09:17:57.269Z,113.45
2022-12-04T09:23:04.736Z,107.93
2022-12-04T09:28:07.797Z,98.15
2022-12-04T09:33:10.432Z,97.10
2022-12-04T09:38:12.918Z,124.80
2022-12-04T09:43:51.198Z,91.03
2022-12-04T09:48:54.810Z,91.00
2022-12-04T09:54:05.750Z,57.25
2022-12-04T09:59:22.469Z,91.47
2022-12-04T10:04:26.399Z,85.05
2022-12-04T10:09:40.024Z,50.80
2022-12-04T10:14:42.604Z,51.30
2022-12-04T10:20:21.408Z,82.28
2022-12-04T10:25:25.342Z,73.10
2022-12-04T10:30:30.517Z,65.80
2022-12-04T10:35:34.522Z,61.80
2022-12-04T10:40:44.239Z,69.17
2022-12-04T10:45:46.892Z,64.80
2022-12-04T10:50:49.465Z,65.45
2022-12-04T10:55:52.070Z,73.28
2022-12-04T11:01:05.574Z,49.97
2022-12-04T11:06:10.099Z,61.58
2022-12-04T11:11:14.208Z,59.97
2022-12-04T11:16:37.674Z,59.90
2022-12-04T11:21:40.281Z,49.40
2022-12-04T11:26:42.919Z,45.45
2022-12-04T11:31:53.265Z,56.42
2022-12-04T11:36:57.292Z,50.22
2022-12-04T11:42:18.323Z,50.40
2022-12-04T11:47:22.952Z,50.42
2022-12-04T11:52:31.530Z,51.47
2022-12-04T11:57:42.950Z,38.40
2022-12-04T12:03:04.166Z,42.15
2022-12-04T12:08:51.652Z,54.25
2022-12-04T12:13:59.917Z,47.38
2022-12-04T12:19:30.046Z,39.85
2022-12-04T12:24:57.189Z,41.67
2022-12-04T12:30:10.438Z,35.80
2022-12-04T12:35:21.854Z,43.58
2022-12-04T12:41:01.879Z,49.17
2022-12-04T12:46:31.727Z,46.25
2022-12-04T12:51:39.905Z,48.90
2022-12-04T12:56:49.912Z,47.45
2022-12-04T13:07:50.803Z,52.88
2022-12-04T13:13:03.636Z,54.47
2022-12-04T13:18:08.318Z,55.72
2022-12-04T13:23:19.880Z,56.13
2022-12-04T13:28:43.578Z,53.25
2022-12-04T13:34:08.763Z,64.90
2022-12-04T13:39:48.906Z,66.35
2022-12-04T13:44:59.603Z,62.88
2022-12-04T13:50:20.879Z,63.13
2022-12-04T13:55:28.548Z,66.07
2022-12-04T14:00:34.867Z,70.97
2022-12-04T14:05:42.901Z,73.10
2022-12-04T14:10:56.939Z,81.60
2022-12-04T14:16:18.361Z,76.50
2022-12-04T14:21:21.409Z,78.93
2022-12-04T14:26:37.330Z,78.93
2022-12-04T14:31:48.911Z,68.07
2022-12-04T14:36:53.400Z,83.63
2022-12-04T14:42:27.569Z,79.05
2022-12-04T14:47:40.175Z,62.38
2022-12-04T14:52:59.347Z,93.38
2022-12-04T14:58:31.962Z,93.03
2022-12-04T15:03:37.313Z,92.32
2022-12-04T15:08:50.660Z,90.15
2022-12-04T15:13:53.318Z,77.43
2022-12-04T15:18:56.937Z,76.35
2022-12-04T15:23:59.716Z,92.10
2022-12-04T15:29:03.968Z,84.78
2022-12-04T15:34:12.986Z,78.97
2022-12-04T15:39:27.904Z,61.17
2022-12-04T15:44:33.293Z,65.15
2022-12-04T15:49:35.907Z,67.35
2022-12-04T15:54:43.073Z,86.53
2022-12-04T15:59:50.379Z,76.88
2022-12-04T16:04:52.874Z,80.68
2022-12-04T16:10:04.022Z,85.53
2022-12-04T16:15:07.697Z,77.65
2022-12-04T16:20:11.517Z,83.80
2022-12-04T16:25:14.231Z,74.47
2022-12-04T16:30:17.074Z,83.15
2022-12-04T16:35:20.191Z,90.30
2022-12-04T16:40:23.100Z,74.65
2022-12-04T16:45:35.516Z,96.93
2022-12-04T16:50:38.363Z,74.60
2022-12-04T16:55:40.985Z,71.10
2022-12-04T17:00:45.150Z,59.63
2022-12-04T17:05:47.742Z,79.43
2022-12-04T17:10:51.091Z,82.60
2022-12-04T17:15:54.035Z,73.30
2022-12-04T17:20:56.746Z,76.57
2022-12-04T17:26:08.746Z,78.47
2022-12-04T17:31:25.512Z,60.33
2022-12-04T17:36:30.499Z,67.95
2022-12-04T17:41:33.091Z,72.95
2022-12-04T17:46:35.843Z,67.18
2022-12-04T17:51:38.552Z,88.35
2022-12-04T17:56:46.106Z,83.43
2022-12-04T18:01:50.866Z,90.40
2022-12-04T18:06:53.367Z,95.75
2022-12-04T18:12:01.575Z,56.50
2022-12-04T18:17:04.667Z,110.90
2022-12-04T18:22:07.359Z,113.10
2022-12-04T18:27:11.048Z,101.43
2022-12-04T18:32:13.809Z,80.88
2022-12-04T18:37:18.363Z,100.20
2022-12-04T18:42:20.933Z,86.85
2022-12-04T18:47:26.637Z,106.18
2022-12-04T18:52:29.287Z,109.88
2022-12-04T18:57:31.840Z,104.40
2022-12-04T19:02:34.398Z,112.03
2022-12-04T19:07:37.003Z,120.95
2022-12-04T19:12:40.343Z,107.60
2022-12-04T19:17:43.223Z,116.93
2022-12-04T19:22:45.804Z,117.10
2022-12-04T19:27:48.339Z,127.57
2022-12-04T19:32:51.102Z,124.00
2022-12-04T19:37:54.977Z,131.10
2022-12-04T19:43:02.588Z,111.85
2022-12-04T19:48:05.813Z,117.90
2022-12-04T19:53:08.380Z,106.78
2022-12-04T19:58:10.990Z,115.82
2022-12-04T20:03:13.789Z,112.80
2022-12-04T20:08:17.514Z,137.05
2022-12-04T20:13:20.251Z,126.25
2022-12-04T20:18:22.826Z,135.27
2022-12-04T20:23:25.742Z,129.20
2022-12-04T20:28:28.440Z,131.80
2022-12-04T20:33:31.001Z,116.20
2022-12-04T20:38:33.597Z,117.78
2022-12-04T20:43:37.132Z,134.35
2022-12-04T20:48:39.719Z,123.30
2022-12-04T20:53:42.712Z,116.28
2022-12-04T20:58:45.791Z,134.65
2022-12-04T21:03:48.439Z,128.63
2022-12-04T21:08:56.171Z,116.43
2022-12-04T21:14:18.676Z,119.20
2022-12-04T21:19:22.440Z,126.53
2022-12-04T21:24:28.869Z,124.53
2022-12-04T21:29:31.396Z,116.88
2022-12-04T21:34:34.118Z,119.40
2022-12-04T21:39:37.068Z,113.28
2022-12-04T21:44:39.998Z,137.10
2022-12-04T21:49:43.036Z,119.20
2022-12-04T21:54:49.368Z,127.72
2022-12-04T21:59:54.068Z,130.18
2022-12-04T22:09:59.647Z,125.68
2022-12-04T22:15:04.417Z,119.57
2022-12-04T22:20:09.402Z,134.77
2022-12-04T22:25:14.192Z,120.55
2022-12-04T22:30:16.751Z,128.10
2022-12-04T22:35:19.667Z,110.28
2022-12-04T22:40:22.183Z,115.28
2022-12-04T22:45:24.931Z,119.43
2022-12-04T22:50:27.836Z,118.63
2022-12-04T22:55:31.644Z,124.53
2022-12-04T23:00:34.137Z,124.55
2022-12-04T23:05:36.803Z,93.95
2022-12-04T23:10:39.303Z,117.15
2022-12-04T23:15:42.813Z,105.00
2022-12-04T23:20:45.581Z,103.90
2022-12-04T23:25:48.211Z,76.93
2022-12-04T23:30:50.761Z,110.25
2022-12-04T23:35:54.340Z,109.78
2022-12-04T23:41:15.144Z,91.88
2022-12-04T23:46:23.549Z,102.05
2022-12-04T23:51:26.453Z,99.22
2022-12-04T23:56:29.258Z,93.40
